sensor_id;sensor_type;location;lat;lon;timestamp;P1;durP1;ratioP1;P2;durP2;ratioP2
62616;SDS011;62539;51.190;6.808;2023-08-06T00:00:13;2.75;;;1.58;;
62616;SDS011;62539;51.190;6.808;2023-08-06T00:02:39;2.30;;;1.50;;
62616;SDS011;62539;51.190;6.808;2023-08-06T00:05:04;3.25;;;1.60;;
62616;SDS011;62539;51.190;6.808;2023-08-06T00:07:30;5.10;;;1.50;;
62616;SDS011;62539;51.190;6.808;2023-08-06T00:09:55;3.58;;;1.73;;
62616;SDS011;62539;51.190;6.808;2023-08-06T00:12:21;2.28;;;1.38;;
62616;SDS011;62539;51.190;6.808;2023-08-06T00:14:49;5.45;;;1.52;;
62616;SDS011;62539;51.190;6.808;2023-08-06T00:17:16;2.50;;;1.60;;
62616;SDS011;62539;51.190;6.808;2023-08-06T00:19:42;3.35;;;1.90;;
62616;SDS011;62539;51.190;6.808;2023-08-06T00:22:07;4.63;;;1.60;;
62616;SDS011;62539;51.190;6.808;2023-08-06T00:24:33;3.50;;;1.90;;
62616;SDS011;62539;51.190;6.808;2023-08-06T00:26:59;4.63;;;1.67;;
62616;SDS011;62539;51.190;6.808;2023-08-06T00:29:25;2.42;;;1.52;;
62616;SDS011;62539;51.190;6.808;2023-08-06T00:31:50;3.03;;;1.40;;
62616;SDS011;62539;51.190;6.808;2023-08-06T00:34:16;2.72;;;1.58;;
62616;SDS011;62539;51.190;6.808;2023-08-06T00:36:41;3.40;;;1.60;;
62616;SDS011;62539;51.190;6.808;2023-08-06T00:39:06;2.47;;;1.50;;
62616;SDS011;62539;51.190;6.808;2023-08-06T00:41:32;2.97;;;1.70;;
62616;SDS011;62539;51.190;6.808;2023-08-06T00:43:57;5.13;;;1.67;;
62616;SDS011;62539;51.190;6.808;2023-08-06T00:46:23;6.78;;;1.85;;
62616;SDS011;62539;51.190;6.808;2023-08-06T00:48:48;2.78;;;1.65;;
62616;SDS011;62539;51.190;6.808;2023-08-06T00:51:16;2.28;;;1.67;;
62616;SDS011;62539;51.190;6.808;2023-08-06T00:53:41;2.22;;;1.40;;
62616;SDS011;62539;51.190;6.808;2023-08-06T00:56:08;2.47;;;1.52;;
62616;SDS011;62539;51.190;6.808;2023-08-06T00:58:34;2.25;;;1.42;;
62616;SDS011;62539;51.190;6.808;2023-08-06T01:01:01;2.17;;;1.40;;
62616;SDS011;62539;51.190;6.808;2023-08-06T01:03:27;3.08;;;1.75;;
62616;SDS011;62539;51.190;6.808;2023-08-06T01:05:52;3.15;;;1.60;;
62616;SDS011;62539;51.190;6.808;2023-08-06T01:08:36;2.92;;;1.45;;
62616;SDS011;62539;51.190;6.808;2023-08-06T01:14:34;2.83;;;1.25;;
62616;SDS011;62539;51.190;6.808;2023-08-06T01:17:14;4.68;;;1.48;;
62616;SDS011;62539;51.190;6.808;2023-08-06T01:19:40;7.07;;;1.55;;
62616;SDS011;62539;51.190;6.808;2023-08-06T01:22:05;4.38;;;1.48;;
62616;SDS011;62539;51.190;6.808;2023-08-06T01:24:31;3.78;;;1.50;;
62616;SDS011;62539;51.190;6.808;2023-08-06T01:29:49;2.40;;;1.50;;
62616;SDS011;62539;51.190;6.808;2023-08-06T01:32:29;1.30;;;1.20;;
62616;SDS011;62539;51.190;6.808;2023-08-06T01:35:00;5.72;;;1.45;;
62616;SDS011;62539;51.190;6.808;2023-08-06T01:37:28;2.72;;;1.40;;
62616;SDS011;62539;51.190;6.808;2023-08-06T01:39:55;2.03;;;1.33;;
62616;SDS011;62539;51.190;6.808;2023-08-06T01:42:20;2.25;;;1.40;;
62616;SDS011;62539;51.190;6.808;2023-08-06T01:44:46;2.45;;;1.23;;
62616;SDS011;62539;51.190;6.808;2023-08-06T01:47:11;1.35;;;1.25;;
62616;SDS011;62539;51.190;6.808;2023-08-06T01:49:37;1.92;;;1.20;;
62616;SDS011;62539;51.190;6.808;2023-08-06T01:52:02;2.55;;;1.42;;
62616;SDS011;62539;51.190;6.808;2023-08-06T01:54:28;2.70;;;1.30;;
62616;SDS011;62539;51.190;6.808;2023-08-06T01:56:53;2.85;;;1.40;;
62616;SDS011;62539;51.190;6.808;2023-08-06T01:59:19;2.83;;;1.80;;
62616;SDS011;62539;51.190;6.808;2023-08-06T02:01:44;1.90;;;1.40;;
62616;SDS011;62539;51.190;6.808;2023-08-06T02:04:10;2.08;;;1.35;;
62616;SDS011;62539;51.190;6.808;2023-08-06T02:06:35;1.40;;;1.20;;
62616;SDS011;62539;51.190;6.808;2023-08-06T02:09:01;1.73;;;1.20;;
62616;SDS011;62539;51.190;6.808;2023-08-06T02:11:26;2.30;;;1.30;;
62616;SDS011;62539;51.190;6.808;2023-08-06T02:13:51;3.78;;;1.17;;
62616;SDS011;62539;51.190;6.808;2023-08-06T02:16:17;2.47;;;1.60;;
62616;SDS011;62539;51.190;6.808;2023-08-06T02:18:42;1.90;;;1.23;;
62616;SDS011;62539;51.190;6.808;2023-08-06T02:21:07;1.73;;;1.38;;
62616;SDS011;62539;51.190;6.808;2023-08-06T02:23:33;4.68;;;1.40;;
62616;SDS011;62539;51.190;6.808;2023-08-06T02:25:59;1.45;;;1.35;;
62616;SDS011;62539;51.190;6.808;2023-08-06T02:28:29;2.40;;;1.50;;
62616;SDS011;62539;51.190;6.808;2023-08-06T02:30:56;3.13;;;1.42;;
62616;SDS011;62539;51.190;6.808;2023-08-06T02:33:21;1.55;;;1.30;;
62616;SDS011;62539;51.190;6.808;2023-08-06T02:35:47;1.95;;;1.20;;
62616;SDS011;62539;51.190;6.808;2023-08-06T02:38:13;2.92;;;1.40;;
62616;SDS011;62539;51.190;6.808;2023-08-06T02:40:47;2.67;;;1.40;;
62616;SDS011;62539;51.190;6.808;2023-08-06T02:43:13;1.50;;;1.40;;
62616;SDS011;62539;51.190;6.808;2023-08-06T02:45:38;1.60;;;1.25;;
62616;SDS011;62539;51.190;6.808;2023-08-06T02:48:04;2.28;;;1.30;;
62616;SDS011;62539;51.190;6.808;2023-08-06T02:50:30;1.30;;;1.20;;
62616;SDS011;62539;51.190;6.808;2023-08-06T02:52:55;2.65;;;1.35;;
62616;SDS011;62539;51.190;6.808;2023-08-06T02:55:21;2.72;;;1.40;;
62616;SDS011;62539;51.190;6.808;2023-08-06T02:57:46;2.30;;;1.33;;
62616;SDS011;62539;51.190;6.808;2023-08-06T03:00:11;1.67;;;1.35;;
62616;SDS011;62539;51.190;6.808;2023-08-06T03:02:37;1.23;;;1.13;;
62616;SDS011;62539;51.190;6.808;2023-08-06T03:05:02;1.90;;;1.20;;
62616;SDS011;62539;51.190;6.808;2023-08-06T03:07:29;1.45;;;1.30;;
62616;SDS011;62539;51.190;6.808;2023-08-06T03:09:54;1.20;;;1.10;;
62616;SDS011;62539;51.190;6.808;2023-08-06T03:12:20;2.58;;;1.38;;
62616;SDS011;62539;51.190;6.808;2023-08-06T03:14:45;1.77;;;1.27;;
62616;SDS011;62539;51.190;6.808;2023-08-06T03:17:11;1.60;;;1.20;;
62616;SDS011;62539;51.190;6.808;2023-08-06T03:19:36;2.72;;;1.10;;
62616;SDS011;62539;51.190;6.808;2023-08-06T03:22:01;1.63;;;1.10;;
62616;SDS011;62539;51.190;6.808;2023-08-06T03:24:27;1.30;;;1.20;;
62616;SDS011;62539;51.190;6.808;2023-08-06T03:26:52;2.90;;;1.23;;
62616;SDS011;62539;51.190;6.808;2023-08-06T03:29:18;1.83;;;1.20;;
62616;SDS011;62539;51.190;6.808;2023-08-06T03:31:43;1.98;;;1.52;;
62616;SDS011;62539;51.190;6.808;2023-08-06T03:34:09;1.55;;;1.35;;
62616;SDS011;62539;51.190;6.808;2023-08-06T03:36:34;2.67;;;1.30;;
62616;SDS011;62539;51.190;6.808;2023-08-06T03:38:59;3.00;;;1.40;;
62616;SDS011;62539;51.190;6.808;2023-08-06T03:41:25;1.75;;;1.27;;
62616;SDS011;62539;51.190;6.808;2023-08-06T03:43:50;1.38;;;1.05;;
62616;SDS011;62539;51.190;6.808;2023-08-06T03:46:16;2.15;;;1.30;;
62616;SDS011;62539;51.190;6.808;2023-08-06T03:48:41;1.33;;;1.02;;
62616;SDS011;62539;51.190;6.808;2023-08-06T03:51:06;2.28;;;1.48;;
62616;SDS011;62539;51.190;6.808;2023-08-06T03:53:32;2.17;;;1.15;;
62616;SDS011;62539;51.190;6.808;2023-08-06T03:55:57;2.22;;;1.30;;
62616;SDS011;62539;51.190;6.808;2023-08-06T03:58:25;1.60;;;1.20;;
62616;SDS011;62539;51.190;6.808;2023-08-06T04:00:58;2.00;;;1.40;;
62616;SDS011;62539;51.190;6.808;2023-08-06T04:03:25;1.63;;;1.25;;
62616;SDS011;62539;51.190;6.808;2023-08-06T04:05:51;1.38;;;1.25;;
62616;SDS011;62539;51.190;6.808;2023-08-06T04:08:17;1.33;;;1.10;;
62616;SDS011;62539;51.190;6.808;2023-08-06T04:10:42;1.52;;;1.20;;
62616;SDS011;62539;51.190;6.808;2023-08-06T04:13:08;1.77;;;1.20;;
62616;SDS011;62539;51.190;6.808;2023-08-06T04:15:33;1.65;;;1.00;;
62616;SDS011;62539;51.190;6.808;2023-08-06T04:17:59;1.40;;;1.30;;
62616;SDS011;62539;51.190;6.808;2023-08-06T04:20:25;1.90;;;1.17;;
62616;SDS011;62539;51.190;6.808;2023-08-06T04:22:50;1.17;;;1.05;;
62616;SDS011;62539;51.190;6.808;2023-08-06T04:25:15;1.63;;;1.15;;
62616;SDS011;62539;51.190;6.808;2023-08-06T04:27:46;1.30;;;1.20;;
62616;SDS011;62539;51.190;6.808;2023-08-06T04:30:12;1.30;;;1.20;;
62616;SDS011;62539;51.190;6.808;2023-08-06T04:35:09;1.25;;;1.00;;
62616;SDS011;62539;51.190;6.808;2023-08-06T04:37:34;1.02;;;1.00;;
62616;SDS011;62539;51.190;6.808;2023-08-06T04:39:59;1.30;;;1.20;;
62616;SDS011;62539;51.190;6.808;2023-08-06T04:42:25;2.22;;;1.40;;
62616;SDS011;62539;51.190;6.808;2023-08-06T04:44:50;1.20;;;1.10;;
62616;SDS011;62539;51.190;6.808;2023-08-06T04:47:16;1.85;;;1.40;;
62616;SDS011;62539;51.190;6.808;2023-08-06T04:49:41;0.93;;;0.93;;
62616;SDS011;62539;51.190;6.808;2023-08-06T04:52:07;1.60;;;1.00;;
62616;SDS011;62539;51.190;6.808;2023-08-06T04:54:32;1.20;;;1.10;;
62616;SDS011;62539;51.190;6.808;2023-08-06T04:57:00;1.25;;;1.00;;
62616;SDS011;62539;51.190;6.808;2023-08-06T04:59:25;1.50;;;1.23;;
62616;SDS011;62539;51.190;6.808;2023-08-06T05:01:50;1.10;;;1.00;;
62616;SDS011;62539;51.190;6.808;2023-08-06T05:04:16;0.90;;;0.90;;
62616;SDS011;62539;51.190;6.808;2023-08-06T05:06:41;1.20;;;1.05;;
62616;SDS011;62539;51.190;6.808;2023-08-06T05:09:07;1.30;;;1.13;;
62616;SDS011;62539;51.190;6.808;2023-08-06T05:11:32;1.15;;;1.00;;
62616;SDS011;62539;51.190;6.808;2023-08-06T05:13:58;1.80;;;1.10;;
62616;SDS011;62539;51.190;6.808;2023-08-06T05:16:23;1.52;;;1.00;;
62616;SDS011;62539;51.190;6.808;2023-08-06T05:18:49;1.67;;;1.30;;
62616;SDS011;62539;51.190;6.808;2023-08-06T05:21:14;1.10;;;1.00;;
62616;SDS011;62539;51.190;6.808;2023-08-06T05:23:41;1.30;;;1.02;;
62616;SDS011;62539;51.190;6.808;2023-08-06T05:26:07;1.85;;;1.27;;
62616;SDS011;62539;51.190;6.808;2023-08-06T05:28:32;1.15;;;1.05;;
62616;SDS011;62539;51.190;6.808;2023-08-06T05:30:58;1.77;;;1.30;;
62616;SDS011;62539;51.190;6.808;2023-08-06T05:33:23;1.23;;;0.90;;
62616;SDS011;62539;51.190;6.808;2023-08-06T05:35:50;1.40;;;1.20;;
62616;SDS011;62539;51.190;6.808;2023-08-06T05:38:16;1.42;;;1.00;;
62616;SDS011;62539;51.190;6.808;2023-08-06T05:40:42;1.85;;;1.30;;
62616;SDS011;62539;51.190;6.808;2023-08-06T05:43:08;1.55;;;1.08;;
62616;SDS011;62539;51.190;6.808;2023-08-06T05:45:33;1.20;;;1.10;;
62616;SDS011;62539;51.190;6.808;2023-08-06T05:47:59;1.23;;;1.10;;
62616;SDS011;62539;51.190;6.808;2023-08-06T05:50:24;1.42;;;1.10;;
62616;SDS011;62539;51.190;6.808;2023-08-06T05:52:50;1.00;;;1.00;;
62616;SDS011;62539;51.190;6.808;2023-08-06T05:55:16;1.10;;;1.00;;
62616;SDS011;62539;51.190;6.808;2023-08-06T05:57:42;1.67;;;1.10;;
62616;SDS011;62539;51.190;6.808;2023-08-06T06:00:07;1.15;;;1.05;;
62616;SDS011;62539;51.190;6.808;2023-08-06T06:02:35;1.55;;;1.02;;
62616;SDS011;62539;51.190;6.808;2023-08-06T06:05:00;5.25;;;0.90;;
62616;SDS011;62539;51.190;6.808;2023-08-06T06:07:26;1.20;;;1.10;;
62616;SDS011;62539;51.190;6.808;2023-08-06T06:09:51;1.35;;;1.23;;
62616;SDS011;62539;51.190;6.808;2023-08-06T06:12:16;2.80;;;1.15;;
62616;SDS011;62539;51.190;6.808;2023-08-06T06:14:43;0.93;;;0.93;;
62616;SDS011;62539;51.190;6.808;2023-08-06T06:17:08;1.27;;;1.17;;
62616;SDS011;62539;51.190;6.808;2023-08-06T06:19:33;1.15;;;0.90;;
62616;SDS011;62539;51.190;6.808;2023-08-06T06:21:59;1.17;;;1.08;;
62616;SDS011;62539;51.190;6.808;2023-08-06T06:24:24;1.35;;;1.15;;
62616;SDS011;62539;51.190;6.808;2023-08-06T06:26:50;1.88;;;1.02;;
62616;SDS011;62539;51.190;6.808;2023-08-06T06:29:15;1.25;;;1.10;;
62616;SDS011;62539;51.190;6.808;2023-08-06T06:31:42;4.82;;;1.10;;
62616;SDS011;62539;51.190;6.808;2023-08-06T06:34:08;2.13;;;1.20;;
62616;SDS011;62539;51.190;6.808;2023-08-06T06:36:34;1.05;;;0.95;;
62616;SDS011;62539;51.190;6.808;2023-08-06T06:38:59;3.45;;;1.20;;
62616;SDS011;62539;51.190;6.808;2023-08-06T06:41:25;1.02;;;0.80;;
62616;SDS011;62539;51.190;6.808;2023-08-06T06:43:52;1.52;;;1.20;;
62616;SDS011;62539;51.190;6.808;2023-08-06T06:46:17;1.85;;;1.02;;
62616;SDS011;62539;51.190;6.808;2023-08-06T06:48:42;1.67;;;1.08;;
62616;SDS011;62539;51.190;6.808;2023-08-06T06:51:11;1.90;;;1.30;;
62616;SDS011;62539;51.190;6.808;2023-08-06T06:53:36;3.35;;;1.10;;
62616;SDS011;62539;51.190;6.808;2023-08-06T06:56:03;1.50;;;1.05;;
62616;SDS011;62539;51.190;6.808;2023-08-06T06:58:30;1.33;;;0.88;;
62616;SDS011;62539;51.190;6.808;2023-08-06T07:00:56;1.08;;;0.90;;
62616;SDS011;62539;51.190;6.808;2023-08-06T07:03:22;2.08;;;1.00;;
62616;SDS011;62539;51.190;6.808;2023-08-06T07:05:48;5.18;;;1.08;;
62616;SDS011;62539;51.190;6.808;2023-08-06T07:08:14;1.52;;;1.00;;
62616;SDS011;62539;51.190;6.808;2023-08-06T07:10:40;1.23;;;1.10;;
62616;SDS011;62539;51.190;6.808;2023-08-06T07:13:07;3.88;;;0.98;;
62616;SDS011;62539;51.190;6.808;2023-08-06T07:15:33;2.08;;;1.20;;
62616;SDS011;62539;51.190;6.808;2023-08-06T07:17:58;5.20;;;1.10;;
62616;SDS011;62539;51.190;6.808;2023-08-06T07:20:24;2.05;;;0.98;;
62616;SDS011;62539;51.190;6.808;2023-08-06T07:22:49;2.78;;;1.05;;
62616;SDS011;62539;51.190;6.808;2023-08-06T07:25:15;9.32;;;1.25;;
62616;SDS011;62539;51.190;6.808;2023-08-06T07:27:41;3.38;;;1.00;;
62616;SDS011;62539;51.190;6.808;2023-08-06T07:30:07;5.15;;;1.20;;
62616;SDS011;62539;51.190;6.808;2023-08-06T07:32:33;1.00;;;0.90;;
62616;SDS011;62539;51.190;6.808;2023-08-06T07:34:59;0.95;;;0.88;;
62616;SDS011;62539;51.190;6.808;2023-08-06T07:37:26;0.82;;;0.80;;
62616;SDS011;62539;51.190;6.808;2023-08-06T07:39:55;1.48;;;0.95;;
62616;SDS011;62539;51.190;6.808;2023-08-06T07:42:20;2.35;;;1.23;;
62616;SDS011;62539;51.190;6.808;2023-08-06T07:44:51;4.20;;;0.90;;
62616;SDS011;62539;51.190;6.808;2023-08-06T07:47:21;7.65;;;1.08;;
62616;SDS011;62539;51.190;6.808;2023-08-06T07:49:46;1.30;;;0.90;;
62616;SDS011;62539;51.190;6.808;2023-08-06T07:52:12;1.52;;;1.08;;
62616;SDS011;62539;51.190;6.808;2023-08-06T07:54:37;4.40;;;1.10;;
62616;SDS011;62539;51.190;6.808;2023-08-06T07:57:03;0.98;;;0.95;;
62616;SDS011;62539;51.190;6.808;2023-08-06T07:59:29;1.40;;;1.00;;
62616;SDS011;62539;51.190;6.808;2023-08-06T08:01:54;1.30;;;0.90;;
62616;SDS011;62539;51.190;6.808;2023-08-06T08:04:20;2.55;;;0.85;;
62616;SDS011;62539;51.190;6.808;2023-08-06T08:06:46;5.43;;;0.95;;
62616;SDS011;62539;51.190;6.808;2023-08-06T08:09:12;4.55;;;1.30;;
62616;SDS011;62539;51.190;6.808;2023-08-06T08:11:38;2.30;;;1.00;;
62616;SDS011;62539;51.190;6.808;2023-08-06T08:14:04;2.17;;;1.00;;
62616;SDS011;62539;51.190;6.808;2023-08-06T08:16:30;1.35;;;1.02;;
62616;SDS011;62539;51.190;6.808;2023-08-06T08:18:55;1.30;;;1.05;;
62616;SDS011;62539;51.190;6.808;2023-08-06T08:21:20;2.92;;;1.20;;
62616;SDS011;62539;51.190;6.808;2023-08-06T08:23:46;7.43;;;1.13;;
62616;SDS011;62539;51.190;6.808;2023-08-06T08:26:11;1.42;;;1.17;;
62616;SDS011;62539;51.190;6.808;2023-08-06T08:28:37;2.55;;;1.13;;
62616;SDS011;62539;51.190;6.808;2023-08-06T08:31:02;1.48;;;1.00;;
62616;SDS011;62539;51.190;6.808;2023-08-06T08:33:28;2.38;;;1.17;;
62616;SDS011;62539;51.190;6.808;2023-08-06T08:35:53;1.95;;;1.10;;
62616;SDS011;62539;51.190;6.808;2023-08-06T08:38:18;0.85;;;0.80;;
62616;SDS011;62539;51.190;6.808;2023-08-06T08:40:45;2.15;;;1.10;;
62616;SDS011;62539;51.190;6.808;2023-08-06T08:43:16;1.80;;;1.10;;
62616;SDS011;62539;51.190;6.808;2023-08-06T08:45:43;1.27;;;0.90;;
62616;SDS011;62539;51.190;6.808;2023-08-06T08:48:14;2.85;;;1.02;;
62616;SDS011;62539;51.190;6.808;2023-08-06T08:50:42;0.80;;;0.80;;
62616;SDS011;62539;51.190;6.808;2023-08-06T08:53:09;2.15;;;1.10;;
62616;SDS011;62539;51.190;6.808;2023-08-06T08:55:36;1.20;;;0.90;;
62616;SDS011;62539;51.190;6.808;2023-08-06T08:58:04;1.20;;;0.90;;
62616;SDS011;62539;51.190;6.808;2023-08-06T09:00:29;1.00;;;0.90;;
62616;SDS011;62539;51.190;6.808;2023-08-06T09:02:55;1.65;;;1.17;;
62616;SDS011;62539;51.190;6.808;2023-08-06T09:05:23;1.33;;;1.00;;
62616;SDS011;62539;51.190;6.808;2023-08-06T09:07:53;2.38;;;1.20;;
62616;SDS011;62539;51.190;6.808;2023-08-06T09:10:21;1.33;;;1.00;;
62616;SDS011;62539;51.190;6.808;2023-08-06T09:12:50;2.40;;;0.80;;
62616;SDS011;62539;51.190;6.808;2023-08-06T09:15:18;1.20;;;1.10;;
62616;SDS011;62539;51.190;6.808;2023-08-06T09:17:43;2.35;;;1.20;;
62616;SDS011;62539;51.190;6.808;2023-08-06T09:20:12;1.30;;;0.93;;
62616;SDS011;62539;51.190;6.808;2023-08-06T09:22:39;1.00;;;0.90;;
62616;SDS011;62539;51.190;6.808;2023-08-06T09:25:05;1.48;;;1.00;;
62616;SDS011;62539;51.190;6.808;2023-08-06T09:27:35;1.98;;;1.13;;
62616;SDS011;62539;51.190;6.808;2023-08-06T09:30:02;1.27;;;1.00;;
62616;SDS011;62539;51.190;6.808;2023-08-06T09:32:47;4.95;;;1.20;;
62616;SDS011;62539;51.190;6.808;2023-08-06T09:35:19;1.85;;;1.10;;
62616;SDS011;62539;51.190;6.808;2023-08-06T09:37:46;1.23;;;1.00;;
62616;SDS011;62539;51.190;6.808;2023-08-06T09:42:51;1.20;;;0.98;;
62616;SDS011;62539;51.190;6.808;2023-08-06T09:45:17;3.20;;;1.10;;
62616;SDS011;62539;51.190;6.808;2023-08-06T09:47:42;1.50;;;0.90;;
62616;SDS011;62539;51.190;6.808;2023-08-06T09:50:17;1.60;;;0.90;;
62616;SDS011;62539;51.190;6.808;2023-08-06T09:52:44;1.30;;;0.90;;
62616;SDS011;62539;51.190;6.808;2023-08-06T09:55:11;1.40;;;0.95;;
62616;SDS011;62539;51.190;6.808;2023-08-06T09:57:38;1.52;;;1.10;;
62616;SDS011;62539;51.190;6.808;2023-08-06T10:00:06;1.48;;;1.23;;
62616;SDS011;62539;51.190;6.808;2023-08-06T10:02:40;1.40;;;0.95;;
62616;SDS011;62539;51.190;6.808;2023-08-06T10:05:06;2.47;;;1.00;;
62616;SDS011;62539;51.190;6.808;2023-08-06T10:07:33;2.35;;;1.10;;
62616;SDS011;62539;51.190;6.808;2023-08-06T10:09:59;1.10;;;1.00;;
62616;SDS011;62539;51.190;6.808;2023-08-06T10:12:25;4.40;;;1.42;;
62616;SDS011;62539;51.190;6.808;2023-08-06T10:14:57;4.28;;;1.30;;
62616;SDS011;62539;51.190;6.808;2023-08-06T10:17:29;2.13;;;1.20;;
62616;SDS011;62539;51.190;6.808;2023-08-06T10:19:58;4.25;;;1.40;;
62616;SDS011;62539;51.190;6.808;2023-08-06T10:22:24;5.50;;;1.20;;
62616;SDS011;62539;51.190;6.808;2023-08-06T10:27:29;6.07;;;1.00;;
62616;SDS011;62539;51.190;6.808;2023-08-06T10:30:22;4.32;;;1.27;;
62616;SDS011;62539;51.190;6.808;2023-08-06T10:32:52;2.95;;;1.10;;
62616;SDS011;62539;51.190;6.808;2023-08-06T10:38:09;2.60;;;1.20;;
62616;SDS011;62539;51.190;6.808;2023-08-06T10:40:41;5.93;;;1.35;;
62616;SDS011;62539;51.190;6.808;2023-08-06T10:43:24;10.55;;;1.40;;
62616;SDS011;62539;51.190;6.808;2023-08-06T10:45:51;2.65;;;1.20;;
62616;SDS011;62539;51.190;6.808;2023-08-06T10:48:28;2.08;;;1.20;;
62616;SDS011;62539;51.190;6.808;2023-08-06T10:51:08;5.78;;;1.50;;
62616;SDS011;62539;51.190;6.808;2023-08-06T10:53:38;7.78;;;1.17;;
62616;SDS011;62539;51.190;6.808;2023-08-06T10:56:15;6.65;;;1.35;;
62616;SDS011;62539;51.190;6.808;2023-08-06T10:58:50;7.18;;;1.67;;
62616;SDS011;62539;51.190;6.808;2023-08-06T11:01:18;1.65;;;1.20;;
62616;SDS011;62539;51.190;6.808;2023-08-06T11:03:44;2.88;;;1.23;;
62616;SDS011;62539;51.190;6.808;2023-08-06T11:06:19;1.27;;;1.10;;
62616;SDS011;62539;51.190;6.808;2023-08-06T11:08:49;2.90;;;1.05;;
62616;SDS011;62539;51.190;6.808;2023-08-06T11:11:18;2.00;;;1.15;;
62616;SDS011;62539;51.190;6.808;2023-08-06T11:13:44;1.63;;;1.05;;
62616;SDS011;62539;51.190;6.808;2023-08-06T11:16:12;2.45;;;1.10;;
62616;SDS011;62539;51.190;6.808;2023-08-06T11:18:40;2.20;;;1.05;;
62616;SDS011;62539;51.190;6.808;2023-08-06T11:21:07;1.88;;;1.23;;
62616;SDS011;62539;51.190;6.808;2023-08-06T11:23:33;1.83;;;1.20;;
62616;SDS011;62539;51.190;6.808;2023-08-06T11:26:00;1.58;;;1.08;;
62616;SDS011;62539;51.190;6.808;2023-08-06T11:28:26;2.83;;;1.25;;
62616;SDS011;62539;51.190;6.808;2023-08-06T11:30:52;2.58;;;1.33;;
62616;SDS011;62539;51.190;6.808;2023-08-06T11:33:21;7.57;;;1.48;;
62616;SDS011;62539;51.190;6.808;2023-08-06T11:35:50;1.77;;;1.15;;
62616;SDS011;62539;51.190;6.808;2023-08-06T11:38:16;2.35;;;1.20;;
62616;SDS011;62539;51.190;6.808;2023-08-06T11:40:45;1.85;;;1.05;;
62616;SDS011;62539;51.190;6.808;2023-08-06T11:43:12;4.85;;;1.27;;
62616;SDS011;62539;51.190;6.808;2023-08-06T11:45:38;4.20;;;1.50;;
62616;SDS011;62539;51.190;6.808;2023-08-06T11:48:05;1.83;;;1.13;;
62616;SDS011;62539;51.190;6.808;2023-08-06T11:50:35;2.15;;;1.20;;
62616;SDS011;62539;51.190;6.808;2023-08-06T11:53:03;2.63;;;1.13;;
62616;SDS011;62539;51.190;6.808;2023-08-06T11:55:28;2.47;;;1.27;;
62616;SDS011;62539;51.190;6.808;2023-08-06T11:57:54;3.05;;;1.50;;
62616;SDS011;62539;51.190;6.808;2023-08-06T12:00:22;5.00;;;1.90;;
62616;SDS011;62539;51.190;6.808;2023-08-06T12:02:50;2.63;;;1.33;;
62616;SDS011;62539;51.190;6.808;2023-08-06T12:07:49;5.28;;;1.48;;
62616;SDS011;62539;51.190;6.808;2023-08-06T12:10:21;4.65;;;1.60;;
62616;SDS011;62539;51.190;6.808;2023-08-06T12:12:48;6.82;;;1.80;;
62616;SDS011;62539;51.190;6.808;2023-08-06T12:15:15;2.70;;;1.67;;
62616;SDS011;62539;51.190;6.808;2023-08-06T12:17:41;4.00;;;1.95;;
62616;SDS011;62539;51.190;6.808;2023-08-06T12:20:07;3.15;;;1.90;;
62616;SDS011;62539;51.190;6.808;2023-08-06T12:22:34;2.70;;;1.60;;
62616;SDS011;62539;51.190;6.808;2023-08-06T12:25:02;2.97;;;1.70;;
62616;SDS011;62539;51.190;6.808;2023-08-06T12:27:35;4.55;;;1.90;;
62616;SDS011;62539;51.190;6.808;2023-08-06T12:30:02;2.60;;;1.70;;
62616;SDS011;62539;51.190;6.808;2023-08-06T12:32:29;11.18;;;1.70;;
62616;SDS011;62539;51.190;6.808;2023-08-06T12:34:55;3.42;;;1.65;;
62616;SDS011;62539;51.190;6.808;2023-08-06T12:37:20;2.80;;;1.50;;
62616;SDS011;62539;51.190;6.808;2023-08-06T12:39:46;5.68;;;1.60;;
62616;SDS011;62539;51.190;6.808;2023-08-06T12:42:12;4.55;;;1.58;;
62616;SDS011;62539;51.190;6.808;2023-08-06T12:44:38;5.30;;;1.50;;
62616;SDS011;62539;51.190;6.808;2023-08-06T12:47:03;5.85;;;1.92;;
62616;SDS011;62539;51.190;6.808;2023-08-06T12:49:29;4.10;;;1.42;;
62616;SDS011;62539;51.190;6.808;2023-08-06T12:51:56;4.72;;;1.73;;
62616;SDS011;62539;51.190;6.808;2023-08-06T12:54:22;6.80;;;1.88;;
62616;SDS011;62539;51.190;6.808;2023-08-06T12:56:48;1.55;;;1.17;;
62616;SDS011;62539;51.190;6.808;2023-08-06T12:59:14;4.47;;;1.75;;
62616;SDS011;62539;51.190;6.808;2023-08-06T13:01:42;4.00;;;1.55;;
62616;SDS011;62539;51.190;6.808;2023-08-06T13:04:08;5.47;;;2.00;;
62616;SDS011;62539;51.190;6.808;2023-08-06T13:06:34;6.97;;;2.20;;
62616;SDS011;62539;51.190;6.808;2023-08-06T13:09:02;7.25;;;2.05;;
62616;SDS011;62539;51.190;6.808;2023-08-06T13:11:29;7.30;;;2.60;;
62616;SDS011;62539;51.190;6.808;2023-08-06T13:14:05;6.88;;;2.65;;
62616;SDS011;62539;51.190;6.808;2023-08-06T13:16:33;10.30;;;2.55;;
62616;SDS011;62539;51.190;6.808;2023-08-06T13:19:03;10.67;;;2.40;;
62616;SDS011;62539;51.190;6.808;2023-08-06T13:21:33;4.60;;;2.20;;
62616;SDS011;62539;51.190;6.808;2023-08-06T13:24:06;7.03;;;2.00;;
62616;SDS011;62539;51.190;6.808;2023-08-06T13:26:32;5.57;;;1.90;;
62616;SDS011;62539;51.190;6.808;2023-08-06T13:28:57;8.32;;;1.95;;
62616;SDS011;62539;51.190;6.808;2023-08-06T13:31:25;3.70;;;1.63;;
62616;SDS011;62539;51.190;6.808;2023-08-06T13:33:51;3.63;;;1.60;;
62616;SDS011;62539;51.190;6.808;2023-08-06T13:36:19;4.32;;;1.73;;
62616;SDS011;62539;51.190;6.808;2023-08-06T13:38:44;3.67;;;1.48;;
62616;SDS011;62539;51.190;6.808;2023-08-06T13:41:10;4.32;;;1.48;;
62616;SDS011;62539;51.190;6.808;2023-08-06T13:43:35;7.05;;;1.92;;
62616;SDS011;62539;51.190;6.808;2023-08-06T13:46:00;5.43;;;1.90;;
62616;SDS011;62539;51.190;6.808;2023-08-06T13:48:26;5.22;;;1.58;;
62616;SDS011;62539;51.190;6.808;2023-08-06T13:50:51;7.72;;;2.00;;
62616;SDS011;62539;51.190;6.808;2023-08-06T13:53:17;6.72;;;2.08;;
62616;SDS011;62539;51.190;6.808;2023-08-06T13:55:42;3.50;;;1.42;;
62616;SDS011;62539;51.190;6.808;2023-08-06T13:58:08;5.00;;;1.80;;
62616;SDS011;62539;51.190;6.808;2023-08-06T14:00:33;1.95;;;1.30;;
62616;SDS011;62539;51.190;6.808;2023-08-06T14:03:00;5.88;;;1.48;;
62616;SDS011;62539;51.190;6.808;2023-08-06T14:05:26;4.28;;;1.98;;
62616;SDS011;62539;51.190;6.808;2023-08-06T14:07:51;3.13;;;1.45;;
62616;SDS011;62539;51.190;6.808;2023-08-06T14:10:17;2.90;;;1.52;;
62616;SDS011;62539;51.190;6.808;2023-08-06T14:12:42;6.63;;;1.75;;
62616;SDS011;62539;51.190;6.808;2023-08-06T14:15:08;5.10;;;1.30;;
62616;SDS011;62539;51.190;6.808;2023-08-06T14:17:34;5.40;;;1.70;;
62616;SDS011;62539;51.190;6.808;2023-08-06T14:19:59;6.85;;;1.80;;
62616;SDS011;62539;51.190;6.808;2023-08-06T14:22:25;3.38;;;1.55;;
62616;SDS011;62539;51.190;6.808;2023-08-06T14:24:51;4.35;;;1.90;;
62616;SDS011;62539;51.190;6.808;2023-08-06T14:27:16;2.47;;;1.45;;
62616;SDS011;62539;51.190;6.808;2023-08-06T14:29:42;5.18;;;1.58;;
62616;SDS011;62539;51.190;6.808;2023-08-06T14:32:07;3.80;;;1.55;;
62616;SDS011;62539;51.190;6.808;2023-08-06T14:34:33;3.90;;;1.90;;
62616;SDS011;62539;51.190;6.808;2023-08-06T14:36:58;4.95;;;1.70;;
62616;SDS011;62539;51.190;6.808;2023-08-06T14:39:24;3.90;;;1.40;;
62616;SDS011;62539;51.190;6.808;2023-08-06T14:41:49;2.30;;;1.50;;
62616;SDS011;62539;51.190;6.808;2023-08-06T14:44:15;1.92;;;1.35;;
62616;SDS011;62539;51.190;6.808;2023-08-06T14:46:40;3.20;;;1.60;;
62616;SDS011;62539;51.190;6.808;2023-08-06T14:49:06;1.85;;;1.33;;
62616;SDS011;62539;51.190;6.808;2023-08-06T14:51:31;1.63;;;1.25;;
62616;SDS011;62539;51.190;6.808;2023-08-06T14:53:57;2.00;;;1.38;;
62616;SDS011;62539;51.190;6.808;2023-08-06T14:56:22;2.28;;;1.20;;
62616;SDS011;62539;51.190;6.808;2023-08-06T14:58:48;3.42;;;1.58;;
62616;SDS011;62539;51.190;6.808;2023-08-06T15:01:13;3.00;;;1.52;;
62616;SDS011;62539;51.190;6.808;2023-08-06T15:03:39;3.38;;;1.60;;